createdAt,value
2023-03-21T00:02:11.556Z,26.50
2023-03-21T00:04:50.891Z,27.00
2023-03-21T00:07:22.501Z,26.90
2023-03-21T00:09:59.114Z,26.60
2023-03-21T00:12:37.395Z,26.70
2023-03-21T00:15:10.053Z,26.40
2023-03-21T00:17:40.590Z,26.10
2023-03-21T00:20:16.428Z,27.70
2023-03-21T00:22:48.041Z,26.20
2023-03-21T00:25:18.476Z,27.30
2023-03-21T00:28:07.518Z,26.60
2023-03-21T00:30:40.390Z,26.30
2023-03-21T00:33:22.352Z,26.20
2023-03-21T00:36:02.595Z,26.80
2023-03-21T00:38:35.665Z,25.70
2023-03-21T00:41:23.663Z,26.60
2023-03-21T00:44:06.360Z,26.60
2023-03-21T00:46:45.231Z,27.50
2023-03-21T00:49:25.024Z,26.60
2023-03-21T00:51:55.345Z,26.30
2023-03-21T00:54:28.471Z,26.00
2023-03-21T00:57:02.890Z,25.30
2023-03-21T00:59:33.225Z,26.70
2023-03-21T01:02:06.867Z,25.40
2023-03-21T01:04:36.987Z,24.70
2023-03-21T01:07:06.645Z,24.30
2023-03-21T01:09:37.066Z,24.80
2023-03-21T01:12:06.641Z,26.30
2023-03-21T01:14:36.112Z,26.50
2023-03-21T01:17:06.107Z,26.30
2023-03-21T01:19:50.654Z,25.20
2023-03-21T01:22:23.085Z,24.50
2023-03-21T01:24:58.485Z,25.00
2023-03-21T01:27:32.879Z,25.60
2023-03-21T01:30:11.208Z,25.30
2023-03-21T01:32:44.348Z,23.70
2023-03-21T01:35:13.924Z,25.30
2023-03-21T01:37:44.501Z,25.20
2023-03-21T01:40:25.014Z,25.00
2023-03-21T01:42:57.879Z,24.00
2023-03-21T01:46:21.326Z,25.10
2023-03-21T01:48:58.136Z,24.30
2023-03-21T01:51:37.581Z,24.00
2023-03-21T01:54:12.130Z,24.30
2023-03-21T01:56:46.498Z,24.10
2023-03-21T01:59:21.738Z,23.80
2023-03-21T02:01:51.762Z,23.90
2023-03-21T02:04:27.789Z,24.40
2023-03-21T02:07:04.386Z,24.50
2023-03-21T02:09:39.896Z,23.90
2023-03-21T02:12:09.849Z,23.40
2023-03-21T02:14:40.236Z,23.30
2023-03-21T02:17:19.056Z,23.10
2023-03-21T02:20:24.714Z,23.60
2023-03-21T02:23:26.889Z,23.00
2023-03-21T02:26:41.104Z,22.70
2023-03-21T02:29:28.570Z,21.60
2023-03-21T02:32:20.509Z,20.20
2023-03-21T02:35:12.636Z,20.80
2023-03-21T02:37:58.243Z,21.30
2023-03-21T02:40:38.712Z,21.50
2023-03-21T02:43:22.908Z,22.60
2023-03-21T02:45:57.557Z,22.80
2023-03-21T02:48:44.839Z,21.70
2023-03-21T02:51:23.037Z,22.60
2023-03-21T02:54:23.725Z,22.50
2023-03-21T02:56:49.621Z,21.90
2023-03-21T02:59:20.909Z,22.40
2023-03-21T03:01:52.997Z,22.40
2023-03-21T03:04:24.304Z,22.80
2023-03-21T03:07:12.388Z,22.20
2023-03-21T03:09:58.958Z,23.10
2023-03-21T03:12:35.971Z,22.80
2023-03-21T03:15:17.259Z,23.00
2023-03-21T03:17:59.061Z,22.10
2023-03-21T03:20:43.835Z,22.00
2023-03-21T03:23:25.418Z,21.80
2023-03-21T03:26:01.987Z,21.90
2023-03-21T03:28:37.381Z,22.00
2023-03-21T03:31:12.243Z,22.00
2023-03-21T03:33:47.145Z,20.60
2023-03-21T03:36:31.547Z,21.60
2023-03-21T03:39:12.731Z,21.90
2023-03-21T03:44:42.678Z,20.80
2023-03-21T03:47:29.774Z,22.70
2023-03-21T03:52:42.044Z,19.50
2023-03-21T03:55:21.028Z,20.00
2023-03-21T03:57:50.563Z,20.40
2023-03-21T04:00:21.410Z,20.40
2023-03-21T04:02:53.795Z,21.30
2023-03-21T04:05:23.616Z,21.50
2023-03-21T04:07:55.411Z,22.30
2023-03-21T04:10:24.946Z,22.40
2023-03-21T04:12:54.841Z,21.10
2023-03-21T04:15:23.726Z,21.00
2023-03-21T04:20:43.298Z,19.90
2023-03-21T04:23:12.438Z,20.60
2023-03-21T04:25:53.978Z,20.80
2023-03-21T04:28:25.887Z,20.30
2023-03-21T04:31:03.767Z,20.10
2023-03-21T04:33:43.668Z,20.90
2023-03-21T04:36:25.975Z,21.30
2023-03-21T04:39:00.473Z,20.90
2023-03-21T04:41:30.665Z,20.80
2023-03-21T04:44:01.259Z,20.70
2023-03-21T04:46:31.325Z,21.70
2023-03-21T04:49:00.908Z,21.30
2023-03-21T04:51:30.991Z,20.40
2023-03-21T04:54:00.092Z,21.90
2023-03-21T04:56:32.100Z,21.80
2023-03-21T04:59:05.660Z,22.20
2023-03-21T05:01:36.157Z,20.90
2023-03-21T05:04:11.126Z,21.70
2023-03-21T05:06:42.428Z,21.80
2023-03-21T05:09:12.839Z,20.70
2023-03-21T05:11:43.039Z,20.70
2023-03-21T05:14:19.745Z,21.30
2023-03-21T05:20:10.884Z,20.60
2023-03-21T05:22:41.952Z,20.40
2023-03-21T05:25:14.705Z,19.30
2023-03-21T05:27:55.021Z,19.20
2023-03-21T05:30:25.992Z,18.60
2023-03-21T05:32:58.662Z,20.80
2023-03-21T05:35:37.243Z,20.20
2023-03-21T05:38:22.434Z,19.90
2023-03-21T05:40:59.824Z,20.30
2023-03-21T05:43:35.508Z,20.30
2023-03-21T05:46:28.457Z,21.50
2023-03-21T05:49:00.167Z,20.80
2023-03-21T05:51:34.141Z,19.70
2023-03-21T05:54:05.806Z,20.40
2023-03-21T05:56:43.606Z,19.40
2023-03-21T05:59:20.866Z,20.80
2023-03-21T06:02:01.210Z,21.10
2023-03-21T06:07:10.029Z,20.50
2023-03-21T06:09:47.831Z,20.80
2023-03-21T06:12:18.695Z,20.40
2023-03-21T06:14:53.824Z,20.60
2023-03-21T06:17:25.871Z,20.80
2023-03-21T06:19:56.309Z,19.80
2023-03-21T06:22:32.960Z,20.00
2023-03-21T06:25:07.431Z,19.70
2023-03-21T06:27:38.943Z,18.50
2023-03-21T06:30:12.058Z,19.50
2023-03-21T06:32:43.802Z,20.20
2023-03-21T06:35:17.505Z,19.30
2023-03-21T06:37:52.474Z,19.90
2023-03-21T06:40:22.715Z,19.60
2023-03-21T06:42:53.579Z,19.70
2023-03-21T06:45:24.977Z,20.80
2023-03-21T06:47:57.476Z,19.20
2023-03-21T06:50:27.634Z,19.90
2023-03-21T06:53:02.559Z,19.60
2023-03-21T06:55:44.660Z,19.40
2023-03-21T06:58:18.662Z,20.90
2023-03-21T07:00:49.595Z,19.70
2023-03-21T07:03:19.278Z,20.20
2023-03-21T07:05:55.337Z,20.10
2023-03-21T07:08:33.430Z,20.30
2023-03-21T07:11:14.921Z,19.30
2023-03-21T07:13:46.272Z,20.70
2023-03-21T07:16:24.393Z,19.60
2023-03-21T07:18:55.626Z,19.80
2023-03-21T07:21:25.571Z,20.90
2023-03-21T07:23:56.139Z,21.10
2023-03-21T07:26:26.241Z,21.20
2023-03-21T07:28:56.720Z,20.40
2023-03-21T07:31:28.010Z,20.70
2023-03-21T07:33:57.684Z,20.50
2023-03-21T07:36:32.939Z,21.30
2023-03-21T07:39:02.320Z,21.30
2023-03-21T07:41:33.201Z,21.30
2023-03-21T07:46:40.052Z,20.10
2023-03-21T07:49:16.170Z,19.10
2023-03-21T07:51:50.359Z,18.70
2023-03-21T07:54:22.829Z,19.80
2023-03-21T07:56:52.399Z,19.40
2023-03-21T07:59:23.477Z,19.20
2023-03-21T08:01:52.829Z,19.20
2023-03-21T08:04:22.995Z,19.60
2023-03-21T08:06:53.423Z,19.10
2023-03-21T08:09:25.584Z,19.20
2023-03-21T08:11:58.486Z,18.80
2023-03-21T08:14:38.469Z,18.80
2023-03-21T08:17:10.513Z,17.80
2023-03-21T08:19:40.826Z,18.00
2023-03-21T08:22:16.767Z,19.10
2023-03-21T08:25:00.549Z,17.90
2023-03-21T08:27:47.674Z,17.80
2023-03-21T08:30:20.908Z,18.40
2023-03-21T08:32:51.102Z,19.00
2023-03-21T08:35:21.419Z,18.40
2023-03-21T08:37:51.275Z,17.90
2023-03-21T08:40:24.804Z,19.80
2023-03-21T08:43:00.612Z,19.00
2023-03-21T08:45:30.433Z,17.80
2023-03-21T08:47:59.895Z,17.80
2023-03-21T08:50:31.978Z,18.20
2023-03-21T08:53:01.465Z,17.00
2023-03-21T08:55:36.163Z,17.60
2023-03-21T08:58:30.730Z,16.70
2023-03-21T09:01:11.241Z,16.80
2023-03-21T09:03:56.541Z,16.30
2023-03-21T09:06:33.253Z,16.90
2023-03-21T09:09:15.234Z,16.80
2023-03-21T09:12:02.664Z,15.30
2023-03-21T09:14:37.578Z,15.40
2023-03-21T09:17:10.389Z,15.80
2023-03-21T09:19:41.042Z,15.00
2023-03-21T09:22:18.756Z,16.10
2023-03-21T09:25:07.658Z,16.30
2023-03-21T09:27:45.903Z,17.10
2023-03-21T09:30:26.225Z,16.20
2023-03-21T09:33:09.734Z,18.00
2023-03-21T09:35:41.405Z,16.30
2023-03-21T09:38:29.779Z,15.10
2023-03-21T09:41:21.138Z,15.50
2023-03-21T09:44:08.826Z,14.90
2023-03-21T09:46:48.149Z,15.20
2023-03-21T09:49:31.699Z,14.60
2023-03-21T09:52:24.171Z,15.20
2023-03-21T09:54:56.042Z,15.60
2023-03-21T09:57:36.279Z,14.20
2023-03-21T10:00:59.321Z,15.40
2023-03-21T10:03:34.532Z,14.90
2023-03-21T10:06:22.055Z,15.30
2023-03-21T10:09:02.241Z,15.80
2023-03-21T10:11:42.815Z,15.10
2023-03-21T10:14:26.055Z,15.40
2023-03-21T10:17:00.092Z,15.60
2023-03-21T10:19:31.552Z,17.50
2023-03-21T10:22:12.547Z,17.50
2023-03-21T10:24:59.836Z,17.00
2023-03-21T10:27:32.131Z,15.50
2023-03-21T10:30:02.404Z,16.80
2023-03-21T10:32:40.296Z,15.30
2023-03-21T10:35:22.181Z,15.40
2023-03-21T10:38:07.628Z,14.50
2023-03-21T10:40:39.086Z,13.50
2023-03-21T10:43:37.711Z,14.60
2023-03-21T10:46:16.574Z,15.70
2023-03-21T10:48:53.533Z,14.60
2023-03-21T10:51:38.774Z,15.20
2023-03-21T10:54:14.202Z,15.00
2023-03-21T10:56:52.801Z,15.80
2023-03-21T10:59:26.625Z,15.30
2023-03-21T11:02:19.806Z,17.60
2023-03-21T11:05:20.941Z,16.80
2023-03-21T11:08:02.351Z,16.80
2023-03-21T11:10:39.535Z,17.00
2023-03-21T11:13:17.607Z,16.70
2023-03-21T11:15:54.492Z,17.70
2023-03-21T11:18:26.598Z,16.70
2023-03-21T11:20:59.430Z,17.60
2023-03-21T11:23:35.734Z,18.00
2023-03-21T11:26:10.914Z,16.80
2023-03-21T11:28:45.814Z,16.80
2023-03-21T11:31:26.471Z,17.10
2023-03-21T11:33:59.441Z,16.90
2023-03-21T11:36:34.357Z,16.40
2023-03-21T11:39:14.820Z,17.00
2023-03-21T11:41:54.518Z,16.30
2023-03-21T11:44:31.628Z,15.30
2023-03-21T11:47:02.862Z,16.40
2023-03-21T11:49:38.638Z,17.30
2023-03-21T11:52:24.105Z,15.70
2023-03-21T11:55:23.515Z,16.40
2023-03-21T11:58:13.791Z,16.60
2023-03-21T12:01:02.253Z,15.10
2023-03-21T12:03:59.468Z,15.10
2023-03-21T12:06:44.492Z,16.60
2023-03-21T12:09:38.766Z,17.10
2023-03-21T12:12:38.299Z,17.20
2023-03-21T12:15:22.274Z,17.30
2023-03-21T12:18:16.213Z,17.40
2023-03-21T12:20:53.460Z,16.20
2023-03-21T12:26:24.047Z,15.40
2023-03-21T12:29:13.824Z,17.80
2023-03-21T12:32:18.348Z,16.20
2023-03-21T12:35:21.308Z,17.20
2023-03-21T12:38:07.599Z,17.00
2023-03-21T12:40:56.534Z,17.70
2023-03-21T12:43:44.542Z,17.70
2023-03-21T12:46:31.920Z,17.50
2023-03-21T12:49:13.205Z,16.90
2023-03-21T12:51:49.106Z,17.70
2023-03-21T12:54:28.755Z,17.50
2023-03-21T12:57:05.981Z,17.70
2023-03-21T12:59:40.049Z,17.70
2023-03-21T13:02:25.124Z,16.80
2023-03-21T13:05:08.252Z,17.60
2023-03-21T13:07:44.878Z,17.80
2023-03-21T13:10:26.146Z,16.70
2023-03-21T13:13:11.118Z,17.60
2023-03-21T13:16:03.733Z,15.90
2023-03-21T13:18:44.575Z,16.00
2023-03-21T13:21:20.925Z,16.50
2023-03-21T13:24:05.189Z,16.90
2023-03-21T13:26:50.622Z,16.80
2023-03-21T13:29:36.922Z,15.80
2023-03-21T13:32:39.688Z,16.10
2023-03-21T13:35:26.722Z,16.70
2023-03-21T13:38:02.525Z,17.20
2023-03-21T13:40:44.932Z,17.10
2023-03-21T13:43:41.066Z,17.30
2023-03-21T13:46:23.941Z,17.10
2023-03-21T13:49:34.792Z,18.20
2023-03-21T13:52:27.381Z,17.10
2023-03-21T13:55:02.834Z,17.60
2023-03-21T13:57:44.712Z,18.10
2023-03-21T14:00:27.343Z,17.70
2023-03-21T14:03:08.094Z,17.70
2023-03-21T14:05:42.128Z,18.50
2023-03-21T14:08:31.324Z,17.40
2023-03-21T14:11:14.196Z,17.90
2023-03-21T14:13:51.367Z,18.90
2023-03-21T14:16:26.636Z,19.10
2023-03-21T14:19:17.535Z,18.60
2023-03-21T14:22:00.411Z,18.60
2023-03-21T14:24:29.536Z,19.20
2023-03-21T14:27:01.007Z,18.90
2023-03-21T14:29:36.684Z,18.50
2023-03-21T14:32:09.022Z,18.70
2023-03-21T14:34:40.588Z,17.60
2023-03-21T14:37:14.535Z,17.90
2023-03-21T14:39:45.569Z,16.80
2023-03-21T14:42:16.417Z,16.70
2023-03-21T14:44:59.580Z,15.70
2023-03-21T14:47:32.436Z,15.40
2023-03-21T14:50:11.400Z,16.50
2023-03-21T14:52:44.535Z,15.70
2023-03-21T14:55:17.888Z,15.40
2023-03-21T14:57:50.608Z,16.10
2023-03-21T15:00:26.148Z,14.70
2023-03-21T15:03:00.042Z,13.80
2023-03-21T15:05:32.179Z,13.90
2023-03-21T15:08:07.594Z,12.90
2023-03-21T15:10:40.194Z,12.80
2023-03-21T15:13:18.556Z,14.40
2023-03-21T15:15:48.936Z,14.20
2023-03-21T15:18:28.312Z,14.40
2023-03-21T15:21:02.830Z,14.90
2023-03-21T15:23:38.189Z,15.70
2023-03-21T15:26:12.529Z,15.20
2023-03-21T15:28:42.494Z,15.80
2023-03-21T15:31:20.922Z,14.90
2023-03-21T15:33:57.052Z,15.40
2023-03-21T15:36:32.328Z,15.30
2023-03-21T15:39:09.064Z,15.30
2023-03-21T15:41:39.600Z,15.70
2023-03-21T15:44:15.446Z,15.10
2023-03-21T15:46:47.819Z,16.30
2023-03-21T15:49:47.367Z,17.00
2023-03-21T15:52:29.924Z,17.80
2023-03-21T15:55:40.314Z,17.30
2023-03-21T15:58:36.709Z,16.70
2023-03-21T16:01:11.222Z,18.00
2023-03-21T16:03:57.164Z,17.70
2023-03-21T16:09:21.618Z,16.80
2023-03-21T16:14:27.371Z,17.90
2023-03-21T16:16:59.186Z,18.70
2023-03-21T16:19:32.330Z,18.90
2023-03-21T16:22:02.606Z,18.10
2023-03-21T16:24:35.415Z,18.60
2023-03-21T16:27:05.427Z,18.40
2023-03-21T16:29:36.623Z,19.40
2023-03-21T16:32:14.607Z,19.10
2023-03-21T16:34:47.296Z,19.00
2023-03-21T16:37:16.842Z,19.30
2023-03-21T16:39:48.289Z,19.70
2023-03-21T16:42:18.473Z,18.90
2023-03-21T16:44:48.857Z,18.50
2023-03-21T16:47:23.037Z,18.50
2023-03-21T16:49:53.069Z,17.70
2023-03-21T16:52:26.218Z,18.50
2023-03-21T16:55:00.762Z,18.50
2023-03-21T16:57:31.171Z,18.80
2023-03-21T17:00:00.880Z,18.00
2023-03-21T17:02:31.376Z,19.40
2023-03-21T17:05:03.605Z,17.60
2023-03-21T17:07:33.441Z,19.30
2023-03-21T17:10:04.701Z,18.50
2023-03-21T17:12:34.361Z,19.30
2023-03-21T17:15:04.261Z,18.80
2023-03-21T17:17:34.830Z,19.10
2023-03-21T17:20:18.300Z,18.50
2023-03-21T17:22:49.874Z,17.70
2023-03-21T17:25:20.587Z,18.00
2023-03-21T17:28:08.139Z,18.10
2023-03-21T17:30:39.571Z,18.80
2023-03-21T17:33:10.077Z,17.90
2023-03-21T17:35:39.628Z,18.10
2023-03-21T17:38:15.915Z,18.10
2023-03-21T17:40:45.177Z,18.20
2023-03-21T17:43:21.161Z,19.10
2023-03-21T17:45:54.893Z,17.90
2023-03-21T17:48:32.913Z,18.70
2023-03-21T17:51:04.418Z,20.10
2023-03-21T17:53:34.242Z,19.90
2023-03-21T17:56:03.780Z,19.30
2023-03-21T17:58:33.252Z,19.70
2023-03-21T18:01:06.135Z,20.60
2023-03-21T18:03:37.966Z,19.80
2023-03-21T18:06:17.806Z,20.40
2023-03-21T18:08:48.785Z,20.50
2023-03-21T18:11:18.977Z,20.80
2023-03-21T18:13:50.605Z,20.70
2023-03-21T18:16:27.101Z,21.70
2023-03-21T18:19:01.180Z,21.70
2023-03-21T18:21:46.663Z,22.40
2023-03-21T18:24:19.746Z,21.70
2023-03-21T18:26:49.636Z,22.50
2023-03-21T18:30:19.770Z,23.20
2023-03-21T18:32:14.916Z,23.40
2023-03-21T18:34:49.431Z,24.60
2023-03-21T18:37:20.843Z,23.10
2023-03-21T18:39:54.610Z,24.00
2023-03-21T18:42:24.767Z,23.40
2023-03-21T18:44:58.468Z,22.90
2023-03-21T18:47:39.312Z,23.40
2023-03-21T18:50:14.441Z,21.80
2023-03-21T18:52:45.108Z,23.80
2023-03-21T18:55:18.631Z,23.30
2023-03-21T18:58:03.089Z,22.20
2023-03-21T19:00:33.877Z,23.40
2023-03-21T19:03:19.190Z,22.90
2023-03-21T19:06:00.107Z,22.50
2023-03-21T19:08:34.385Z,21.40
2023-03-21T19:11:06.927Z,21.50
2023-03-21T19:13:38.418Z,22.00
2023-03-21T19:16:11.243Z,21.80
2023-03-21T19:18:54.413Z,22.20
2023-03-21T19:21:27.313Z,22.50
2023-03-21T19:26:47.689Z,23.70
2023-03-21T19:29:17.846Z,21.70
2023-03-21T19:31:50.488Z,23.00
2023-03-21T19:34:29.943Z,21.10
2023-03-21T19:37:07.741Z,21.30
2023-03-21T19:39:37.780Z,20.50
2023-03-21T19:42:16.785Z,21.80
2023-03-21T19:44:47.857Z,20.70
2023-03-21T19:47:20.841Z,20.50
2023-03-21T19:52:51.245Z,21.30
2023-03-21T19:55:22.829Z,21.50
2023-03-21T19:57:53.580Z,21.10
2023-03-21T20:00:43.358Z,20.70
2023-03-21T20:03:24.399Z,21.10
2023-03-21T20:06:08.743Z,20.10
2023-03-21T20:11:35.569Z,20.70
2023-03-21T20:14:12.675Z,19.40
2023-03-21T20:16:43.972Z,20.10
2023-03-21T20:19:25.245Z,18.70
2023-03-21T20:22:07.867Z,18.90
2023-03-21T20:24:42.698Z,20.10
2023-03-21T20:27:14.571Z,19.60
2023-03-21T20:30:08.790Z,19.40
2023-03-21T20:32:37.883Z,19.40
2023-03-21T20:35:20.637Z,19.40
2023-03-21T20:37:54.791Z,19.40
2023-03-21T20:40:24.352Z,19.70
2023-03-21T20:42:55.489Z,18.70
2023-03-21T20:45:26.033Z,19.70
2023-03-21T20:48:05.981Z,19.20
2023-03-21T20:50:41.449Z,19.70
2023-03-21T20:53:12.494Z,20.20
2023-03-21T20:55:44.808Z,19.50
2023-03-21T20:58:36.557Z,20.10
2023-03-21T21:01:13.317Z,19.70
2023-03-21T21:03:45.493Z,19.80
2023-03-21T21:06:17.351Z,20.50
2023-03-21T21:08:47.584Z,19.40
2023-03-21T21:12:02.916Z,20.10
2023-03-21T21:14:10.822Z,19.40
2023-03-21T21:16:40.633Z,20.90
2023-03-21T21:19:10.144Z,20.60
2023-03-21T21:21:40.487Z,19.10
2023-03-21T21:24:14.946Z,19.70
2023-03-21T21:26:45.841Z,20.10
2023-03-21T21:29:16.510Z,20.50
2023-03-21T21:31:49.698Z,20.90
2023-03-21T21:34:19.504Z,20.40
2023-03-21T21:36:50.328Z,21.50
2023-03-21T21:39:21.422Z,21.10
2023-03-21T21:41:52.589Z,20.40
2023-03-21T21:44:21.999Z,21.00
2023-03-21T21:46:51.149Z,21.40
2023-03-21T21:49:20.776Z,20.80
2023-03-21T21:51:50.414Z,21.10
2023-03-21T21:54:19.720Z,21.60
2023-03-21T21:56:53.663Z,21.00
2023-03-21T21:59:23.918Z,20.60
2023-03-21T22:01:53.426Z,21.40
2023-03-21T22:04:27.092Z,21.40
2023-03-21T22:06:56.573Z,20.60
2023-03-21T22:09:25.963Z,22.60
2023-03-21T22:11:56.291Z,21.60
2023-03-21T22:14:26.021Z,22.50
2023-03-21T22:16:54.896Z,23.10
2023-03-21T22:19:24.470Z,23.20
2023-03-21T22:21:57.571Z,22.30
2023-03-21T22:24:27.316Z,23.90
2023-03-21T22:27:01.493Z,24.00
2023-03-21T22:29:31.246Z,22.90
2023-03-21T22:32:04.360Z,25.80
2023-03-21T22:34:41.310Z,24.70
2023-03-21T22:37:11.023Z,24.50
2023-03-21T22:39:40.261Z,24.10
2023-03-21T22:42:09.329Z,26.80
2023-03-21T22:44:39.088Z,26.00
2023-03-21T22:47:17.157Z,25.90
2023-03-21T22:49:46.598Z,26.30
2023-03-21T22:52:17.463Z,25.70
2023-03-21T22:54:48.900Z,26.40
2023-03-21T22:57:20.096Z,26.80
2023-03-21T22:59:50.437Z,26.20
2023-03-21T23:02:20.084Z,27.30
2023-03-21T23:04:49.361Z,26.50
2023-03-21T23:07:18.959Z,26.80
2023-03-21T23:09:48.867Z,26.90
2023-03-21T23:12:19.118Z,25.60
2023-03-21T23:14:49.296Z,25.70
2023-03-21T23:17:18.803Z,25.00
2023-03-21T23:19:48.540Z,24.80
2023-03-21T23:22:18.357Z,23.50
2023-03-21T23:24:48.507Z,23.60
2023-03-21T23:27:18.101Z,24.10
2023-03-21T23:29:48.479Z,23.50
2023-03-21T23:32:17.983Z,23.60
2023-03-21T23:34:47.437Z,23.10
2023-03-21T23:37:17.655Z,22.40
2023-03-21T23:39:48.630Z,21.90
2023-03-21T23:42:18.871Z,22.40
2023-03-21T23:44:48.679Z,22.10
2023-03-21T23:47:18.508Z,22.10
2023-03-21T23:49:49.742Z,21.60
2023-03-21T23:52:19.690Z,21.50
2023-03-21T23:54:49.365Z,21.40
2023-03-21T23:57:19.848Z,22.00
